Time;durP1;ratioP1;P1;durP2;ratioP2;P2;SDS_P1;SDS_P2;PMS_P1;PMS_P2;Temp;Humidity;BMP_temperature;BMP_pressure;BME280_temperature;BME280_humidity;BME280_pressure;Samples;Min_cycle;Max_cycle;Signal;HPM_P1;HPM_P2
2022/05/19 00:00:36;;;;;;;22.73;6.88;;;;;;;16.11;100.00;98549.78;4981216;28;20061;-57
2022/05/19 00:03:02;;;;;;;18.13;6.40;;;;;;;16.00;100.00;98545.09;4981636;28;20037;-56
2022/05/19 00:05:27;;;;;;;17.98;6.45;;;;;;;16.03;100.00;98544.06;4981557;28;20456;-55
2022/05/19 00:07:53;;;;;;;20.17;6.68;;;;;;;15.87;100.00;98542.28;4981679;28;20022;-56
2022/05/19 00:10:19;;;;;;;16.05;5.90;;;;;;;15.80;100.00;98540.91;4981352;28;20038;-56
2022/05/19 00:12:44;;;;;;;19.25;6.30;;;;;;;15.75;100.00;98545.56;4981953;28;20070;-57
2022/05/19 00:15:11;;;;;;;17.05;6.10;;;;;;;15.66;100.00;98543.38;4981453;28;20058;-56
2022/05/19 00:17:37;;;;;;;20.88;6.47;;;;;;;15.63;100.00;98538.31;4981305;28;20420;-56
2022/05/19 00:20:03;;;;;;;20.70;6.80;;;;;;;15.51;100.00;98545.03;4981331;28;20727;-57
2022/05/19 00:22:28;;;;;;;19.77;6.20;;;;;;;15.76;100.00;98540.22;4980961;28;20085;-57
2022/05/19 00:24:53;;;;;;;17.17;6.10;;;;;;;15.75;100.00;98542.94;4980553;28;20030;-56
2022/05/19 00:27:19;;;;;;;20.38;6.38;;;;;;;15.61;100.00;98538.38;4980975;28;20041;-55
2022/05/19 00:29:44;;;;;;;13.30;5.55;;;;;;;15.65;100.00;98539.06;4981227;28;20131;-55
2022/05/19 00:32:09;;;;;;;19.77;5.95;;;;;;;15.78;100.00;98537.50;4980899;28;20080;-55
2022/05/19 00:34:35;;;;;;;18.58;6.60;;;;;;;15.63;100.00;98533.06;4981562;28;20038;-57
2022/05/19 00:37:02;;;;;;;20.38;6.07;;;;;;;15.59;100.00;98538.47;4980579;28;20133;-58
2022/05/19 00:39:28;;;;;;;18.40;6.05;;;;;;;15.54;100.00;98540.47;4981032;28;20034;-56
2022/05/19 00:44:40;;;;;;;19.30;6.13;;;;;;;15.50;100.00;98527.59;4981234;28;20442;-56
2022/05/19 00:47:13;;;;;;;19.67;6.10;;;;;;;15.47;100.00;98531.22;4980590;28;20088;-55
2022/05/19 00:49:42;;;;;;;15.32;5.53;;;;;;;15.79;100.00;98523.44;4981066;28;20366;-56
2022/05/19 00:52:30;;;;;;;19.90;6.05;;;;;;;15.70;100.00;98523.91;4978593;28;20451;-57
2022/05/19 00:55:01;;;;;;;18.40;5.85;;;;;;;15.76;100.00;98521.81;4980403;28;20029;-57
2022/05/19 00:57:30;;;;;;;20.75;6.28;;;;;;;15.67;100.00;98529.31;4979817;28;20125;-59
2022/05/19 01:00:17;;;;;;;17.60;5.63;;;;;;;15.58;100.00;98523.59;4980822;28;20039;-57
2022/05/19 01:02:50;;;;;;;18.00;5.80;;;;;;;15.34;100.00;98520.50;4980672;28;20072;-56
2022/05/19 01:05:30;;;;;;;18.00;6.05;;;;;;;15.60;100.00;98524.41;4980040;28;20030;-56
2022/05/19 01:08:09;;;;;;;19.30;5.55;;;;;;;15.73;100.00;98526.34;4980466;28;20070;-56
2022/05/19 01:10:37;;;;;;;16.20;5.72;;;;;;;15.52;100.00;98520.47;4979800;28;20083;-56
2022/05/19 01:13:02;;;;;;;19.08;5.85;;;;;;;15.69;100.00;98524.81;4980764;28;20035;-56
2022/05/19 01:15:28;;;;;;;14.77;5.03;;;;;;;15.81;100.00;98521.56;4980469;28;20480;-56
2022/05/19 01:17:54;;;;;;;15.65;5.55;;;;;;;15.82;100.00;98531.16;4980605;28;20034;-55
2022/05/19 01:20:26;;;;;;;15.48;4.93;;;;;;;15.73;100.00;98527.22;4979388;28;20034;-55
2022/05/19 01:22:55;;;;;;;16.55;5.88;;;;;;;15.51;100.00;98527.50;4979965;28;20034;-55
2022/05/19 01:25:33;;;;;;;17.05;5.50;;;;;;;15.58;100.00;98531.50;4979735;28;20156;-56
2022/05/19 01:27:59;;;;;;;15.82;5.70;;;;;;;15.40;100.00;98527.19;4979479;28;20057;-56
2022/05/19 01:30:24;;;;;;;17.90;5.80;;;;;;;15.47;100.00;98535.63;4979674;28;20121;-56
2022/05/19 01:32:55;;;;;;;20.88;6.32;;;;;;;15.34;100.00;98527.53;4980014;28;20423;-55
2022/05/19 01:35:21;;;;;;;16.58;5.60;;;;;;;15.46;100.00;98531.28;4979255;28;20057;-57
2022/05/19 01:37:47;;;;;;;16.42;5.80;;;;;;;15.40;100.00;98527.19;4979644;28;20057;-56
2022/05/19 01:40:18;;;;;;;18.15;6.03;;;;;;;15.39;100.00;98526.38;4979185;28;20408;-56
2022/05/19 01:42:56;;;;;;;18.83;5.80;;;;;;;15.43;100.00;98532.31;4979399;28;20030;-56
2022/05/19 01:45:37;;;;;;;15.38;5.28;;;;;;;15.21;100.00;98533.41;4979745;28;20112;-56
2022/05/19 01:48:39;;;;;;;15.65;5.63;;;;;;;15.01;100.00;98533.59;4979741;28;20113;-55
2022/05/19 01:51:43;;;;;;;19.10;5.53;;;;;;;14.80;100.00;98527.66;4978953;28;20046;-56
2022/05/19 01:54:13;;;;;;;18.98;5.68;;;;;;;14.98;100.00;98536.34;4974285;28;20046;-55
2022/05/19 01:56:46;;;;;;;23.10;5.90;;;;;;;14.89;100.00;98536.81;4977022;28;20045;-56
2022/05/19 01:59:12;;;;;;;20.75;6.13;;;;;;;14.80;100.00;98533.75;4979215;28;20026;-56
2022/05/19 02:01:40;;;;;;;19.23;6.23;;;;;;;14.83;100.00;98538.84;4978650;28;20052;-54
2022/05/19 02:04:17;;;;;;;21.30;6.40;;;;;;;14.63;100.00;98536.34;4979344;28;20274;-55
2022/05/19 02:06:52;;;;;;;17.58;5.95;;;;;;;14.64;100.00;98535.41;4978801;28;20520;-55
2022/05/19 02:09:48;;;;;;;21.25;6.32;;;;;;;14.53;100.00;98541.16;4979032;28;20022;-55
2022/05/19 02:12:13;;;;;;;21.58;6.38;;;;;;;14.70;100.00;98537.72;4977890;28;20096;-55
2022/05/19 02:14:59;;;;;;;15.88;5.40;;;;;;;14.62;100.00;98535.50;4979437;28;20590;-54
2022/05/19 02:17:26;;;;;;;18.20;6.20;;;;;;;14.36;100.00;98541.97;4978350;28;20057;-56
2022/05/19 02:19:56;;;;;;;15.48;5.72;;;;;;;14.04;100.00;98548.72;4978892;28;20026;-56
2022/05/19 02:22:28;;;;;;;23.50;7.05;;;;;;;14.10;100.00;98544.97;4978105;28;20046;-55
2022/05/19 02:24:57;;;;;;;20.30;6.28;;;;;;;14.00;100.00;98542.75;4979288;28;20724;-54
2022/05/19 02:27:40;;;;;;;19.05;6.30;;;;;;;13.89;100.00;98539.78;4977617;28;20092;-54
2022/05/19 02:30:09;;;;;;;20.92;6.82;;;;;;;13.66;100.00;98544.31;4978269;28;20026;-55
2022/05/19 02:32:38;;;;;;;21.25;6.38;;;;;;;14.04;100.00;98544.34;4978715;28;20405;-55
2022/05/19 02:35:05;;;;;;;19.13;6.15;;;;;;;14.00;100.00;98540.16;4978969;28;20050;-54
2022/05/19 02:37:31;;;;;;;19.70;6.18;;;;;;;14.05;100.00;98535.53;4977480;28;20045;-54
2022/05/19 02:39:57;;;;;;;19.88;6.15;;;;;;;13.77;100.00;98530.72;4978677;28;20026;-55
2022/05/19 02:42:22;;;;;;;22.10;6.68;;;;;;;13.80;100.00;98527.09;4978535;28;20042;-57
2022/05/19 02:44:48;;;;;;;31.27;6.97;;;;;;;13.79;100.00;98523.63;4978530;28;20026;-56
2022/05/19 02:47:13;;;;;;;19.40;6.40;;;;;;;13.91;100.00;98527.47;4977637;28;20034;-55
2022/05/19 02:49:38;;;;;;;22.48;6.68;;;;;;;13.83;100.00;98524.34;4978194;28;20037;-54
2022/05/19 02:52:04;;;;;;;19.40;6.38;;;;;;;13.81;100.00;98518.34;4978117;28;20050;-54
2022/05/19 02:54:29;;;;;;;21.52;6.55;;;;;;;13.95;100.00;98517.69;4978429;28;20030;-55
2022/05/19 02:56:55;;;;;;;18.80;6.18;;;;;;;13.93;100.00;98524.78;4978069;28;20096;-54
2022/05/19 02:59:20;;;;;;;25.42;7.03;;;;;;;13.79;100.00;98517.56;4978757;28;20037;-57
2022/05/19 03:01:45;;;;;;;22.02;6.45;;;;;;;13.74;100.00;98516.91;4977475;28;20744;-55
2022/05/19 03:04:10;;;;;;;20.98;6.53;;;;;;;13.75;100.00;98515.97;4977598;28;20034;-54
2022/05/19 03:06:36;;;;;;;22.17;6.30;;;;;;;13.74;100.00;98514.28;4981364;28;20038;-56
2022/05/19 03:09:01;;;;;;;23.63;6.60;;;;;;;13.93;100.00;98509.91;4978783;28;20113;-54
2022/05/19 03:11:26;;;;;;;20.40;6.07;;;;;;;13.98;100.00;98513.16;4978268;28;20053;-54
2022/05/19 03:13:52;;;;;;;22.08;6.43;;;;;;;13.69;100.00;98517.09;4978465;28;20030;-56
2022/05/19 03:16:17;;;;;;;20.15;6.25;;;;;;;13.85;100.00;98507.63;4978217;28;20038;-55
2022/05/19 03:18:42;;;;;;;19.95;6.38;;;;;;;13.84;100.00;98515.56;4978199;28;20045;-55
2022/05/19 03:21:08;;;;;;;19.80;5.60;;;;;;;13.67;100.00;98514.56;4977853;28;20104;-54
2022/05/19 03:23:33;;;;;;;22.75;6.30;;;;;;;13.89;100.00;98518.81;4978548;28;20034;-54
2022/05/19 03:25:58;;;;;;;19.52;6.00;;;;;;;13.83;100.00;98524.34;4978026;28;20069;-55
2022/05/19 03:28:24;;;;;;;17.90;5.35;;;;;;;13.76;100.00;98520.31;4978231;28;20037;-55
2022/05/19 03:30:49;;;;;;;20.08;6.05;;;;;;;13.71;100.00;98530.16;4977715;28;20141;-54
2022/05/19 03:33:15;;;;;;;17.65;6.10;;;;;;;13.35;100.00;98534.34;4978414;28;20030;-54
2022/05/19 03:35:42;;;;;;;21.08;6.70;;;;;;;13.53;100.00;98527.44;4978088;28;20042;-55
2022/05/19 03:38:08;;;;;;;21.50;6.38;;;;;;;13.12;100.00;98527.44;4978234;28;20064;-55
2022/05/19 03:40:34;;;;;;;20.13;6.53;;;;;;;13.30;100.00;98526.66;4978015;28;20789;-54
2022/05/19 03:42:59;;;;;;;19.60;6.45;;;;;;;13.29;100.00;98529.34;4978546;28;20559;-55
2022/05/19 03:45:25;;;;;;;20.55;6.53;;;;;;;13.29;100.00;98529.34;4976891;28;20122;-56
2022/05/19 03:47:50;;;;;;;19.05;6.80;;;;;;;12.99;100.00;98521.03;4977697;28;20102;-55
2022/05/19 03:50:15;;;;;;;25.15;7.18;;;;;;;13.22;100.00;98531.38;4974806;28;20041;-56
2022/05/19 03:52:42;;;;;;;20.08;6.47;;;;;;;13.14;100.00;98530.00;4972847;28;20830;-56
2022/05/19 03:55:09;;;;;;;19.92;7.10;;;;;;;12.61;100.00;98532.19;4975699;28;20069;-55
2022/05/19 03:57:35;;;;;;;19.52;6.68;;;;;;;12.89;100.00;98526.66;4977709;28;20034;-56
2022/05/19 04:00:01;;;;;;;21.90;6.75;;;;;;;12.67;100.00;98520.63;4981741;28;20029;-57
2022/05/19 04:02:26;;;;;;;23.42;6.75;;;;;;;13.08;100.00;98520.63;4980752;28;20847;-54
2022/05/19 04:04:51;;;;;;;16.75;6.43;;;;;;;12.98;100.00;98528.03;4982147;28;20591;-55
2022/05/19 04:07:17;;;;;;;23.45;6.47;;;;;;;13.08;100.00;98528.50;4980794;28;20039;-56
2022/05/19 04:09:42;;;;;;;21.02;6.75;;;;;;;13.37;100.00;98526.41;4981771;28;20087;-55
2022/05/19 04:12:09;;;;;;;17.02;5.93;;;;;;;13.75;100.00;98521.22;4981148;28;20042;-54
2022/05/19 04:14:34;;;;;;;20.88;6.90;;;;;;;13.62;100.00;98521.78;4981384;28;20042;-55
2022/05/19 04:17:00;;;;;;;21.83;6.63;;;;;;;13.58;100.00;98524.59;4981033;28;20451;-54
2022/05/19 04:19:25;;;;;;;20.55;6.55;;;;;;;13.94;100.00;98529.09;4980918;28;20030;-55
2022/05/19 04:21:51;;;;;;;19.02;6.30;;;;;;;13.91;100.00;98527.47;4980797;28;20120;-55
2022/05/19 04:24:16;;;;;;;19.02;6.55;;;;;;;14.30;100.00;98533.53;4981389;28;20076;-56
2022/05/19 04:26:41;;;;;;;18.10;6.55;;;;;;;14.62;100.00;98529.41;4980536;28;20031;-55
2022/05/19 04:29:06;;;;;;;19.45;6.35;;;;;;;14.76;100.00;98531.31;4981248;28;20879;-56
2022/05/19 04:31:32;;;;;;;19.50;6.38;;;;;;;14.44;100.00;98531.94;4980799;28;20042;-56
2022/05/19 04:33:57;;;;;;;20.33;6.65;;;;;;;14.38;100.00;98527.00;4980744;28;20396;-55
2022/05/19 04:36:23;;;;;;;20.75;6.32;;;;;;;14.81;100.00;98519.69;4980275;28;20046;-57
2022/05/19 04:38:48;;;;;;;19.85;6.45;;;;;;;15.21;100.00;98522.06;4980809;28;20814;-56
2022/05/19 04:41:13;;;;;;;18.90;6.25;;;;;;;15.80;100.00;98514.59;4980620;28;20035;-56
2022/05/19 04:43:39;;;;;;;26.00;6.35;;;;;;;15.32;100.00;98513.63;4980583;28;20053;-56
2022/05/19 04:46:04;;;;;;;16.40;5.72;;;;;;;14.83;100.00;98527.47;4980763;28;20407;-58
2022/05/19 04:48:29;;;;;;;17.42;6.07;;;;;;;14.27;100.00;98516.19;4980702;28;20026;-56
2022/05/19 04:50:57;;;;;;;16.15;5.95;;;;;;;14.88;100.00;98522.00;4980435;28;21199;-57
2022/05/19 04:53:22;;;;;;;19.33;6.00;;;;;;;14.79;100.00;98521.53;4980656;28;20045;-56
2022/05/19 04:55:48;;;;;;;19.92;6.30;;;;;;;14.96;100.00;98522.44;4980127;28;20039;-57
2022/05/19 04:58:14;;;;;;;19.42;6.43;;;;;;;15.23;100.00;98515.78;4980693;28;20037;-55
2022/05/19 05:00:39;;;;;;;21.15;6.03;;;;;;;15.23;100.00;98512.31;4969362;28;20037;-55
2022/05/19 05:03:06;;;;;;;22.35;5.90;;;;;;;16.03;100.00;98515.13;4979948;28;20080;-56
2022/05/19 05:05:33;;;;;;;16.13;5.00;;;;;;;16.69;100.00;98520.16;4980242;28;20034;-58
2022/05/19 05:07:58;;;;;;;18.25;5.55;;;;;;;16.58;100.00;98512.03;4979572;28;20025;-55
2022/05/19 05:10:24;;;;;;;15.05;4.82;;;;;;;16.46;100.00;98508.31;4978850;28;20042;-55
2022/05/19 05:12:49;;;;;;;16.73;5.20;;;;;;;16.79;100.00;98514.38;4979758;28;20026;-58
2022/05/19 05:15:15;;;;;;;16.80;4.90;;;;;;;16.66;100.00;98514.22;4979720;28;20228;-57
2022/05/19 05:17:40;;;;;;;18.10;5.15;;;;;;;17.07;100.00;98525.00;4979709;28;20495;-55
2022/05/19 05:20:08;;;;;;;19.88;5.28;;;;;;;17.37;100.00;98520.63;4979094;28;20033;-56
2022/05/19 05:22:35;;;;;;;16.58;5.32;;;;;;;16.91;100.00;98524.22;4979816;28;20077;-56
2022/05/19 05:25:07;;;;;;;17.02;5.45;;;;;;;17.75;100.00;98523.56;4980038;28;20484;-56
2022/05/19 05:27:33;;;;;;;18.25;5.15;;;;;;;17.42;100.00;98524.66;4979482;28;20034;-57
2022/05/19 05:29:58;;;;;;;17.83;4.80;;;;;;;18.17;100.00;98526.28;4979584;28;20061;-56
2022/05/19 05:32:23;;;;;;;17.85;5.25;;;;;;;19.24;100.00;98523.66;4979390;28;20034;-57
2022/05/19 05:34:49;;;;;;;20.40;6.03;;;;;;;19.50;99.10;98528.94;4979296;28;20141;-56
2022/05/19 05:37:14;;;;;;;16.77;5.93;;;;;;;20.15;98.07;98533.25;4979060;28;20046;-56
2022/05/19 05:39:40;;;;;;;17.38;4.60;;;;;;;22.25;80.57;98534.16;4979191;28;20022;-56
2022/05/19 05:42:06;;;;;;;18.42;4.78;;;;;;;23.67;67.17;98532.09;4978637;28;20507;-57
2022/05/19 05:44:31;;;;;;;12.80;4.15;;;;;;;25.64;58.58;98528.66;4979506;28;20026;-57
2022/05/19 05:46:57;;;;;;;10.65;3.72;;;;;;;27.09;53.80;98523.44;4978945;28;20065;-57
2022/05/19 05:49:22;;;;;;;14.80;4.32;;;;;;;28.74;49.40;98519.75;4978105;28;20034;-56
2022/05/19 05:51:48;;;;;;;14.95;3.83;;;;;;;29.60;46.50;98523.72;4978963;28;20088;-57
2022/05/19 05:54:13;;;;;;;15.23;4.13;;;;;;;29.47;43.94;98518.06;4979316;28;20042;-56
2022/05/19 05:56:39;;;;;;;9.65;3.50;;;;;;;30.29;42.73;98515.94;4978876;28;20046;-57
2022/05/19 05:59:04;;;;;;;8.80;3.08;;;;;;;30.38;40.56;98522.13;4978733;28;20033;-55
2022/05/19 06:01:29;;;;;;;10.38;3.78;;;;;;;30.57;37.58;98518.16;4978273;28;20504;-54
2022/05/19 06:03:55;;;;;;;6.25;3.10;;;;;;;30.81;35.96;98505.53;4979442;28;20088;-54
2022/05/19 06:06:20;;;;;;;7.07;3.20;;;;;;;31.49;35.97;98517.28;4979010;28;20569;-54
2022/05/19 06:08:46;;;;;;;6.13;2.60;;;;;;;31.22;34.83;98514.13;4979048;28;20026;-54
2022/05/19 06:11:13;;;;;;;5.75;2.60;;;;;;;32.57;31.41;98512.19;4978901;28;20096;-55
2022/05/19 06:13:39;;;;;;;9.10;2.60;;;;;;;30.01;33.40;98520.94;4979107;28;20026;-54
2022/05/19 06:16:04;;;;;;;7.30;2.88;;;;;;;31.28;32.52;98512.53;4978887;28;20096;-56
2022/05/19 06:18:30;;;;;;;7.20;3.15;;;;;;;32.26;32.84;98505.25;4978753;28;20538;-56
2022/05/19 06:20:56;;;;;;;11.18;2.60;;;;;;;32.13;32.05;98505.94;4981055;28;20153;-55
2022/05/19 06:23:21;;;;;;;6.72;2.55;;;;;;;34.04;29.79;98510.66;4978929;28;20034;-54
2022/05/19 06:25:47;;;;;;;7.15;2.60;;;;;;;31.69;31.06;98504.91;4978711;28;20046;-55
2022/05/19 06:28:12;;;;;;;5.15;2.55;;;;;;;32.70;29.42;98500.72;4978952;28;20026;-55
2022/05/19 06:30:38;;;;;;;5.63;2.60;;;;;;;32.51;29.34;98499.47;4978551;28;20034;-55
2022/05/19 06:33:07;;;;;;;13.63;3.00;;;;;;;30.69;30.56;98497.03;4979475;28;20058;-55
2022/05/19 06:35:34;;;;;;;8.43;2.78;;;;;;;31.82;29.86;98498.84;4978382;28;20109;-54
2022/05/19 06:37:59;;;;;;;5.50;2.30;;;;;;;32.13;29.71;98491.56;4978962;28;20172;-56
2022/05/19 06:40:27;;;;;;;7.60;2.40;;;;;;;32.88;28.81;98489.47;4978083;28;20161;-55
2022/05/19 06:42:53;;;;;;;6.75;2.67;;;;;;;32.24;30.67;98485.69;4978775;28;20037;-56
2022/05/19 06:45:23;;;;;;;5.57;2.50;;;;;;;33.56;28.33;98482.53;4978203;28;20408;-54
2022/05/19 06:47:50;;;;;;;5.95;2.70;;;;;;;32.76;29.28;98479.19;4978955;28;20049;-56
2022/05/19 06:50:16;;;;;;;6.50;2.55;;;;;;;33.20;28.79;98480.84;4978227;28;20030;-57
2022/05/19 06:52:54;;;;;;;8.20;2.50;;;;;;;33.36;28.26;98485.13;4993415;28;20042;-55
2022/05/19 06:55:22;;;;;;;7.00;2.50;;;;;;;33.07;28.89;98478.00;4978418;28;20114;-55
2022/05/19 06:57:47;;;;;;;6.20;2.40;;;;;;;33.13;29.50;98479.13;4978272;28;20156;-55
2022/05/19 07:00:19;;;;;;;6.15;2.40;;;;;;;33.60;29.34;98478.41;4978558;28;20030;-54
2022/05/19 07:02:48;;;;;;;6.20;2.38;;;;;;;34.78;26.45;98481.97;4978273;28;20022;-55
2022/05/19 07:05:14;;;;;;;5.00;2.42;;;;;;;33.34;27.40;98487.19;4978205;28;20026;-57
2022/05/19 07:07:40;;;;;;;4.60;2.22;;;;;;;33.02;28.98;98483.97;4978650;28;20025;-55
2022/05/19 07:10:06;;;;;;;4.50;2.70;;;;;;;32.85;28.33;98471.81;4978363;28;20156;-56
2022/05/19 07:12:33;;;;;;;6.82;2.60;;;;;;;33.54;27.75;98479.16;4978488;28;20022;-55
2022/05/19 07:15:00;;;;;;;10.88;2.50;;;;;;;33.60;28.05;98480.25;4978307;28;20129;-55
2022/05/19 07:17:25;;;;;;;4.80;2.42;;;;;;;35.11;26.44;98487.41;4976648;28;20683;-56
2022/05/19 07:22:34;;;;;;;6.88;2.40;;;;;;;34.53;26.80;98479.81;4978400;28;20049;-56
2022/05/19 07:25:01;;;;;;;6.80;2.50;;;;;;;35.51;26.09;98476.50;4978523;28;20038;-56
2022/05/19 07:27:26;;;;;;;11.82;2.78;;;;;;;34.17;26.82;98473.72;4977627;28;20026;-55
2022/05/19 07:29:52;;;;;;;9.93;2.50;;;;;;;35.22;25.87;98469.69;4978569;28;20037;-56
2022/05/19 07:32:17;;;;;;;7.20;2.92;;;;;;;34.67;26.90;98469.84;4977788;28;20038;-56
2022/05/19 07:34:43;;;;;;;7.88;2.60;;;;;;;33.76;28.08;98471.00;4981889;28;20037;-56
2022/05/19 07:37:10;;;;;;;5.15;2.58;;;;;;;33.87;27.84;98470.44;4981259;28;20082;-57
2022/05/19 07:39:35;;;;;;;7.03;2.28;;;;;;;34.99;26.89;98470.94;4981955;28;20048;-55
2022/05/19 07:42:01;;;;;;;8.20;2.25;;;;;;;36.08;25.86;98460.47;4981536;28;20112;-55
2022/05/19 07:44:28;;;;;;;6.50;2.38;;;;;;;35.02;26.62;98461.56;4981352;28;20030;-56
2022/05/19 07:46:54;;;;;;;7.55;2.40;;;;;;;34.68;27.08;98464.25;4981569;28;20088;-55
2022/05/19 07:49:19;;;;;;;5.57;2.50;;;;;;;34.04;27.34;98459.25;4981525;28;20751;-58
2022/05/19 07:51:47;;;;;;;5.93;2.25;;;;;;;37.05;25.54;98454.84;4981345;28;20085;-57
2022/05/19 07:54:19;;;;;;;6.38;2.20;;;;;;;34.81;27.60;98460.72;4981756;28;20531;-57
2022/05/19 07:56:45;;;;;;;13.73;2.60;;;;;;;35.81;26.15;98460.59;4980508;28;20728;-57
2022/05/19 07:59:11;;;;;;;8.43;2.45;;;;;;;35.13;27.01;98461.75;4981861;28;20045;-59
2022/05/19 08:01:38;;;;;;;8.57;2.50;;;;;;;34.68;26.59;98466.09;4980088;28;20134;-59
2022/05/19 08:04:04;;;;;;;4.57;2.30;;;;;;;36.66;25.76;98463.09;4981648;28;20026;-58
2022/05/19 08:06:29;;;;;;;5.25;2.50;;;;;;;36.40;25.70;98463.28;4980674;28;20046;-58
2022/05/19 08:08:55;;;;;;;5.15;2.53;;;;;;;35.90;26.21;98464.75;4981717;28;20033;-59
2022/05/19 08:11:22;;;;;;;6.88;2.08;;;;;;;35.50;26.26;98467.56;4980982;28;20139;-59
2022/05/19 08:16:32;;;;;;;5.88;2.63;;;;;;;36.69;25.38;98471.88;4980639;28;20041;-58
2022/05/19 08:18:58;;;;;;;9.30;2.28;;;;;;;35.69;25.97;98462.31;4981010;28;20014;-56
2022/05/19 08:21:23;;;;;;;5.53;2.33;;;;;;;33.29;29.06;98467.16;4980554;28;20041;-57
2022/05/19 08:23:50;;;;;;;5.43;2.50;;;;;;;32.83;29.61;98466.59;4981210;28;20030;-57
2022/05/19 08:26:16;;;;;;;6.85;2.30;;;;;;;33.74;28.99;98459.56;4980977;28;20572;-57
2022/05/19 08:28:43;;;;;;;6.80;2.40;;;;;;;33.37;29.18;98467.03;4980627;28;20033;-57
2022/05/19 08:31:15;;;;;;;4.78;2.40;;;;;;;34.10;28.72;98466.56;4980527;28;20045;-56
2022/05/19 08:33:42;;;;;;;3.30;2.20;;;;;;;35.30;27.30;98454.03;4980642;28;20031;-57
2022/05/19 08:36:09;;;;;;;6.60;2.10;;;;;;;35.01;27.52;98459.88;4980480;28;20038;-58
2022/05/19 08:38:35;;;;;;;7.15;2.85;;;;;;;34.80;28.41;98464.47;4980865;28;20594;-57
2022/05/19 08:41:12;;;;;;;25.13;17.08;;;;;;;34.55;28.18;98456.06;4980143;28;20042;-58
2022/05/19 08:43:44;;;;;;;3.83;2.20;;;;;;;33.91;28.39;98452.78;4980563;28;20152;-57
2022/05/19 08:46:23;;;;;;;7.07;2.38;;;;;;;33.12;29.11;98463.91;4979439;28;20046;-59
2022/05/19 08:48:52;;;;;;;5.50;2.58;;;;;;;34.60;28.11;98452.75;4979812;28;20030;-58
2022/05/19 08:51:18;;;;;;;7.93;2.85;;;;;;;32.05;30.58;98444.78;4980285;28;20092;-56
2022/05/19 08:53:43;;;;;;;5.35;2.55;;;;;;;34.32;28.01;98457.28;4980364;28;20026;-57
2022/05/19 08:56:41;;;;;;;6.35;2.50;;;;;;;34.84;28.32;98445.94;4980304;28;20062;-57
2022/05/19 08:59:28;;;;;;;5.07;2.47;;;;;;;34.54;29.01;98455.25;4980706;28;20066;-57
2022/05/19 09:02:00;;;;;;;6.78;2.75;;;;;;;33.81;29.43;98449.59;4979549;28;20225;-56
2022/05/19 09:04:31;;;;;;;7.75;2.67;;;;;;;34.58;29.05;98439.41;4980856;28;20037;-57
2022/05/19 09:10:51;;;;;;;3.83;2.30;;;;;;;32.13;30.93;98419.56;4979940;28;20084;-57
2022/05/19 09:13:29;;;;;;;8.75;2.38;;;;;;;36.64;26.80;98416.28;4980175;28;20042;-59
2022/05/19 09:15:55;;;;;;;7.20;2.70;;;;;;;34.80;29.32;98414.88;4979961;28;20042;-57
2022/05/19 09:18:29;;;;;;;6.80;2.30;;;;;;;35.54;27.91;98416.41;4994844;28;20061;-56
2022/05/19 09:20:56;;;;;;;4.07;2.05;;;;;;;36.23;26.96;98409.47;4979386;28;20122;-56
2022/05/19 09:23:23;;;;;;;4.78;2.22;;;;;;;36.45;27.35;98406.41;4979912;28;20034;-59
2022/05/19 09:25:52;;;;;;;6.13;2.63;;;;;;;36.27;27.31;98409.88;4979810;28;20050;-56
2022/05/19 09:28:18;;;;;;;4.70;2.20;;;;;;;36.45;26.97;98409.94;4979805;28;20023;-56
2022/05/19 09:30:51;;;;;;;6.55;2.40;;;;;;;36.12;27.38;98407.44;4979906;28;20046;-57
2022/05/19 09:33:41;;;;;;;7.60;2.95;;;;;;;36.15;27.24;98408.88;4979805;28;20030;-59
2022/05/19 09:36:11;;;;;;;4.85;2.20;;;;;;;37.29;25.76;98401.50;4979433;28;20045;-57
2022/05/19 09:38:45;;;;;;;5.32;2.33;;;;;;;35.41;27.45;98392.88;4979479;28;20034;-57
2022/05/19 09:41:21;;;;;;;4.68;2.55;;;;;;;36.94;26.73;98393.88;4978983;28;20042;-57
2022/05/19 09:43:51;;;;;;;5.40;2.22;;;;;;;37.25;26.60;98388.59;4979648;28;20121;-56
2022/05/19 09:46:17;;;;;;;8.95;2.63;;;;;;;35.46;28.67;98387.66;4979552;28;20581;-57
2022/05/19 09:48:47;;;;;;;8.25;2.80;;;;;;;36.76;27.53;98394.69;4979583;28;20784;-57
2022/05/19 09:51:15;;;;;;;5.65;2.47;;;;;;;34.84;28.06;98394.44;4977345;28;20643;-57
2022/05/19 09:53:53;;;;;;;6.97;2.80;;;;;;;34.87;28.17;98386.72;4979324;28;20033;-57
2022/05/19 09:56:22;;;;;;;6.30;2.60;;;;;;;33.13;30.62;98392.63;4978289;28;20121;-59
2022/05/19 09:58:50;;;;;;;4.57;2.50;;;;;;;34.87;28.97;98380.44;4979167;28;20100;-58
2022/05/19 10:01:27;;;;;;;5.43;2.58;;;;;;;38.56;25.25;98384.38;4979211;28;20704;-57
2022/05/19 10:03:59;;;;;;;6.20;2.67;;;;;;;36.71;27.35;98377.38;4979902;28;20080;-58
2022/05/19 10:06:46;;;;;;;5.30;2.63;;;;;;;33.91;28.99;98382.44;4976879;28;20411;-57
2022/05/19 10:09:16;;;;;;;7.53;2.78;;;;;;;34.83;28.73;98376.50;4979044;28;20026;-57
2022/05/19 10:11:51;;;;;;;4.93;2.50;;;;;;;35.40;28.51;98366.84;4978912;28;20096;-56
2022/05/19 10:14:24;;;;;;;6.22;2.80;;;;;;;32.82;30.46;98370.34;4979144;28;20030;-59
2022/05/19 10:17:13;;;;;;;6.90;2.50;;;;;;;34.99;27.45;98359.81;4978378;28;20086;-58
2022/05/19 10:20:09;;;;;;;5.28;2.58;;;;;;;36.03;26.87;98359.88;4979125;28;20056;-58
2022/05/19 10:23:02;;;;;;;5.70;2.53;;;;;;;36.32;26.56;98360.31;4978957;28;20038;-58
2022/05/19 10:25:53;;;;;;;5.13;2.60;;;;;;;36.32;26.73;98358.44;4978546;28;20111;-57
2022/05/19 10:31:49;;;;;;;6.45;2.45;;;;;;;34.13;28.61;98360.59;4978765;28;20053;-57
2022/05/19 10:34:20;;;;;;;5.75;2.65;;;;;;;32.99;30.17;98357.41;4979011;28;20508;-58
2022/05/19 10:36:56;;;;;;;;;;;;;;;35.25;28.30;98358.94;4979086;28;20046;-57
2022/05/19 10:39:35;;;;;;;6.90;2.50;;;;;;;32.74;30.86;98346.22;4978982;28;19941;-56
2022/05/19 10:42:13;;;;;;;5.55;2.72;;;;;;;33.87;28.87;98348.69;4978418;28;20108;-57
2022/05/19 10:44:50;;;;;;;6.10;2.40;;;;;;;33.62;29.12;98348.38;4979698;28;20026;-57
2022/05/19 10:47:22;;;;;;;11.40;2.50;;;;;;;33.57;28.88;98337.31;4977969;28;20046;-56
2022/05/19 10:49:57;;;;;;;5.50;2.58;;;;;;;33.02;29.27;98329.13;4978874;28;20117;-59
2022/05/19 10:52:31;;;;;;;7.35;2.50;;;;;;;33.97;28.39;98323.94;4978599;28;20042;-57
2022/05/19 10:55:22;;;;;;;5.25;2.40;;;;;;;34.50;28.64;98317.72;4978680;28;20109;-57
2022/05/19 10:57:56;;;;;;;7.00;2.60;;;;;;;34.18;28.66;98331.91;4977798;28;20595;-59
2022/05/19 11:00:25;;;;;;;5.05;2.30;;;;;;;33.16;29.39;98321.94;4977523;28;20061;-59
2022/05/19 11:03:28;;;;;;;6.65;2.60;;;;;;;33.98;30.60;98312.88;4978459;28;20023;-57
2022/05/19 11:06:05;;;;;;;6.78;2.67;;;;;;;33.09;28.98;98316.50;4978420;28;20046;-56
2022/05/19 11:09:16;;;;;;;8.05;2.47;;;;;;;32.91;29.65;98314.31;4980325;28;20025;-58
2022/05/19 11:11:53;;;;;;;6.47;2.37;;;;;;;34.62;27.83;98305.22;4980500;28;20124;-56
2022/05/19 11:14:51;;;;;;;10.13;3.38;;;;;;;33.61;29.39;98309.66;4980491;28;20436;-56
2022/05/19 11:17:33;;;;;;;8.70;2.88;;;;;;;35.09;27.74;98306.00;4974202;28;20176;-58
2022/05/19 11:20:24;;;;;;;9.65;2.70;;;;;;;34.97;27.80;98299.56;4982384;28;20648;-57
2022/05/19 11:23:00;;;;;;;5.95;2.40;;;;;;;34.74;27.91;98295.47;4980845;28;20058;-57
2022/05/19 11:28:28;;;;;;;7.05;2.38;;;;;;;34.09;30.44;98289.78;4981853;28;20698;-56
2022/05/19 11:31:06;;;;;;;5.80;3.25;;;;;;;34.24;29.55;98289.63;4981797;28;20049;-57
2022/05/19 11:33:39;;;;;;;10.27;2.42;;;;;;;32.05;30.57;98288.31;4982191;28;20416;-59
2022/05/19 11:36:16;;;;;;;7.63;2.60;;;;;;;33.71;29.58;98284.97;4981924;28;20041;-56
2022/05/19 11:38:57;;;;;;;7.60;2.95;;;;;;;33.18;30.03;98287.47;4981808;28;20033;-56
2022/05/19 11:41:32;;;;;;;6.45;2.83;;;;;;;34.06;29.79;98283.97;4981446;28;20626;-58
2022/05/19 11:44:10;;;;;;;5.93;2.58;;;;;;;34.02;30.85;98277.31;4981913;28;20045;-57
2022/05/19 11:46:46;;;;;;;8.50;3.20;;;;;;;33.19;30.55;98278.31;4981436;28;20126;-57
2022/05/19 11:55:22;;;;;;;6.68;2.85;;;;;;;34.27;29.28;98281.09;4981083;28;20104;-59
2022/05/19 11:58:09;;;;;;;6.63;2.90;;;;;;;34.09;29.30;98272.75;4981070;28;20062;-56
2022/05/19 12:00:50;;;;;;;6.82;2.60;;;;;;;32.91;29.23;98290.00;4996317;28;20060;-59